CheckWX is a tool to help pilots better visualize weather data.  It is not intended as a substitute for an official pre-flight weather briefing.

07:44:32 UTC

PAUN TAF
Unalakleet Airport
Unalakleet, Alaska, USA
PAUN 190520Z 1906/2006 06022KT P6SM FEW080 FM191800 09015KT P6SM BKN100

Jan-19@
06:00 UTC

Jan-19 @ 06:00 UTC

Jan-19@
18:00 UTC

Jan-19 @ 18:00 UTC

PAUN 190520Z 1906/2006 06022KT P6SM FEW080
Wind
  • 060° at 22 KTS
Cloud Levels
  • Few at 8,000' AGL

Jan-19@
18:00 UTC

Jan-19 @ 18:00 UTC

Jan-20@
06:00 UTC

Jan-20 @ 06:00 UTC

FM191800 09015KT P6SM BKN100

From

From Standard forecast or significant change

Wind
  • 090° at 15 KTS
Cloud Levels
  • Broken at 10,000' AGL